Terminal Aerodrome Forecast
Issued by NWS Wilmington, NC

Home | Current Version | Previous Version | Text Only | Print | Product List | Glossary On
Versions: 1 2 3 4 5 6 7 8 9 10 11 12 13 14 15 16 17 18 19 20 21 22 23 24 25
750
FTUS42 KILM 251720
TAFMYR
TAF
KMYR 251720Z 2518/2618 16010KT P6SM SCT015 SCT080 BKN200
     FM252300 17008KT P6SM FEW020 SCT080 BKN200
     FM260800 20003KT P6SM VCSH BKN015 BKN100
     FM261500 20010KT P6SM SCT020 BKN035=

USA.gov is the U.S. government's official web portal to all federal, state and local government web resources and services.